Calabogie, Canada
Current Conditions -  °F | °C
As of 9:00 AM on Thursday 30 Oct 2014 (Local Time) from CYOW Reporting Station
Few Clouds Few Clouds  
Wind Chill: 34°   Ceiling: Unl
Heat Index: 39°   Visibility: 15mi
Dew Point: 34°   Wind: 7mph
Humidity: 81%   Direction: 290°WNW
Pressure: 30"   Gusts: NA
Location:  45.31°N, 76.72°W
Report Text: CYOW 301300Z 29006KT 15SM FEW030 04/01 A3000 RMK SC1 SC TR SLP164
Loading
Personal Weather Stations






























Interactive Weather Map
Tropical Storm Tracking
New forecast layout! Learn more

10-Day Weather Forecast

Advertisements
Track Severe Weather on mobile